Time;durP1;ratioP1;P1;durP2;ratioP2;P2;SDS_P1;SDS_P2;PMS_P1;PMS_P2;Temp;Humidity;BMP_temperature;BMP_pressure;BME280_temperature;BME280_humidity;BME280_pressure;Samples;Min_cycle;Max_cycle;Signal;HPM_P1;HPM_P2
2021/12/20 00:00:21;;;;;;;8.65;2.45;;;28.20;99.90;;;;;;5081031;28;20119;-68
2021/12/20 00:02:55;;;;;;;9.88;3.50;;;28.40;99.90;;;;;;5080973;28;20430;-69
2021/12/20 00:05:23;;;;;;;11.30;3.40;;;28.50;99.90;;;;;;5080542;28;20411;-71
2021/12/20 00:07:50;;;;;;;11.95;3.72;;;28.80;99.90;;;;;;5079872;28;20032;-66
2021/12/20 00:10:18;;;;;;;8.07;3.47;;;29.00;99.90;;;;;;5080658;28;20072;-65
2021/12/20 00:12:46;;;;;;;9.73;3.00;;;29.10;99.90;;;;;;5080889;28;20074;-68
2021/12/20 00:15:13;;;;;;;12.70;3.13;;;29.20;99.90;;;;;;5080882;28;20020;-66
2021/12/20 00:17:40;;;;;;;8.88;2.70;;;29.20;99.30;;;;;;5079251;28;20024;-66
2021/12/20 00:20:08;;;;;;;11.57;2.97;;;29.20;99.90;;;;;;5080328;28;20063;-73
2021/12/20 00:22:35;;;;;;;9.52;3.13;;;29.30;99.90;;;;;;5081486;28;20021;-69
2021/12/20 00:25:04;;;;;;;10.02;3.10;;;29.50;99.50;;;;;;5078619;28;20034;-67
2021/12/20 00:27:31;;;;;;;10.27;3.33;;;29.80;98.80;;;;;;5080982;28;20021;-71
2021/12/20 00:29:58;;;;;;;9.40;3.17;;;29.90;98.50;;;;;;5079852;28;20420;-73
2021/12/20 00:32:25;;;;;;;12.75;4.28;;;30.00;99.00;;;;;;5080751;28;20097;-68
2021/12/20 00:34:53;;;;;;;11.90;2.58;;;30.00;99.50;;;;;;5080573;28;20016;-66
2021/12/20 00:42:59;;;;;;;7.97;3.03;;;30.60;97.00;;;;;;5081052;28;20640;-73
2021/12/20 00:45:30;;;;;;;6.40;2.42;;;31.00;96.10;;;;;;5095561;28;20093;-72
2021/12/20 00:47:57;;;;;;;7.75;2.80;;;31.20;96.60;;;;;;5080157;28;20728;-68
2021/12/20 00:50:25;;;;;;;9.80;2.95;;;31.60;94.60;;;;;;5079448;28;20387;-70
2021/12/20 00:52:52;;;;;;;10.05;3.67;;;31.50;95.60;;;;;;5080025;28;20014;-70
2021/12/20 00:55:20;;;;;;;10.02;3.75;;;31.60;95.90;;;;;;5079634;28;20119;-66
2021/12/20 00:57:49;;;;;;;9.80;3.50;;;31.60;94.20;;;;;;5080270;28;20077;-73
2021/12/20 01:00:20;;;;;;;10.90;2.67;;;31.20;95.70;;;;;;5077977;28;20038;-66
2021/12/20 01:02:48;;;;;;;11.27;3.45;;;30.90;95.80;;;;;;5080426;28;20025;-67
2021/12/20 01:05:16;;;;;;;11.05;2.83;;;30.70;95.50;;;;;;5079620;28;20468;-68
2021/12/20 01:07:43;;;;;;;9.27;4.20;;;30.40;95.90;;;;;;5079918;28;20009;-67
2021/12/20 01:10:11;;;;;;;6.60;3.38;;;30.20;96.60;;;;;;5079434;28;20025;-68
2021/12/20 01:12:46;;;;;;;10.25;3.42;;;30.20;97.00;;;;;;5078146;28;20039;-67
2021/12/20 01:15:23;;;;;;;9.93;3.28;;;30.70;97.20;;;;;;5079780;28;20028;-67
2021/12/20 01:17:52;;;;;;;7.80;2.70;;;31.50;95.80;;;;;;5080650;28;20519;-69
2021/12/20 01:20:20;;;;;;;11.55;3.20;;;32.40;93.30;;;;;;5079389;28;20388;-68
2021/12/20 01:22:49;;;;;;;9.82;3.47;;;32.60;92.40;;;;;;5079475;28;20028;-68
2021/12/20 01:25:17;;;;;;;9.13;2.92;;;32.60;91.70;;;;;;5078938;28;20048;-76
2021/12/20 01:27:44;;;;;;;10.90;3.30;;;32.80;91.90;;;;;;5095627;28;20415;-69
2021/12/20 01:30:14;;;;;;;9.52;4.00;;;32.60;92.30;;;;;;5079901;28;20088;-73
2021/12/20 01:32:42;;;;;;;11.35;3.10;;;32.60;93.20;;;;;;5080277;28;20099;-69
2021/12/20 01:35:10;;;;;;;8.13;2.83;;;33.00;92.40;;;;;;5078157;28;20697;-69
2021/12/20 01:37:37;;;;;;;11.23;3.55;;;33.40;91.30;;;;;;5079393;28;20248;-73
2021/12/20 01:40:08;;;;;;;9.45;2.90;;;34.10;89.50;;;;;;5087590;28;20379;-71
2021/12/20 01:42:36;;;;;;;10.07;4.83;;;34.50;85.50;;;;;;5107025;28;20047;-72
2021/12/20 01:45:18;;;;;;;9.32;3.78;;;34.60;86.30;;;;;;5090251;28;20522;-67
2021/12/20 01:47:52;;;;;;;;;;;33.90;86.90;;;;;;5090435;28;20523;-67
2021/12/20 01:50:35;;;;;;;5.30;2.65;;;33.30;88.40;;;;;;5089432;28;19961;-72
2021/12/20 01:53:02;;;;;;;5.82;2.83;;;33.40;89.30;;;;;;5089000;28;20383;-73
2021/12/20 01:55:29;;;;;;;6.10;2.58;;;33.90;90.00;;;;;;5090287;28;20028;-68
2021/12/20 01:57:56;;;;;;;7.90;2.50;;;34.10;87.70;;;;;;5091315;28;20146;-73
2021/12/20 02:00:26;;;;;;;6.13;2.35;;;34.80;85.40;;;;;;5089059;28;20031;-72
2021/12/20 02:02:59;;;;;;;8.45;2.88;;;34.70;83.50;;;;;;5090685;28;20032;-74
2021/12/20 02:05:34;;;;;;;6.75;2.60;;;34.90;78.20;;;;;;5088041;28;20119;-68
2021/12/20 02:08:13;;;;;;;4.43;2.28;;;34.80;79.40;;;;;;5106570;28;20023;-70
2021/12/20 02:10:40;;;;;;;6.45;2.53;;;34.70;84.10;;;;;;5090282;28;20452;-70
2021/12/20 02:13:07;;;;;;;6.70;2.60;;;35.10;80.40;;;;;;5088842;28;20483;-68
2021/12/20 02:15:34;;;;;;;5.95;2.00;;;35.10;77.20;;;;;;5089249;28;20040;-68
2021/12/20 02:18:01;;;;;;;7.38;2.50;;;35.30;80.60;;;;;;5089725;28;20131;-75
2021/12/20 02:20:34;;;;;;;7.72;2.88;;;35.40;80.80;;;;;;5105665;28;20028;-69
2021/12/20 02:23:02;;;;;;;6.82;2.53;;;35.70;79.30;;;;;;5092448;28;20842;-71
2021/12/20 02:25:31;;;;;;;5.70;2.08;;;35.90;77.10;;;;;;5104474;28;20096;-68
2021/12/20 02:28:20;;;;;;;7.38;2.42;;;35.70;76.20;;;;;;5080762;28;20025;-75
2021/12/20 02:36:55;;;;;;;8.32;2.50;;;35.60;75.40;;;;;;5077683;28;20533;-70
2021/12/20 02:39:10;;;;;;;6.60;2.17;;;36.10;74.80;;;;;;5078952;28;20043;-74
2021/12/20 02:41:37;;;;;;;5.97;2.08;;;36.00;73.50;;;;;;5077062;28;20028;-69
2021/12/20 02:44:06;;;;;;;7.85;2.15;;;36.10;74.20;;;;;;5078252;28;20488;-65
2021/12/20 02:49:10;;;;;;;7.82;2.05;;;36.60;68.90;;;;;;5078849;28;20028;-66
2021/12/20 02:51:38;;;;;;;5.38;2.40;;;37.10;67.00;;;;;;5079116;28;20395;-70
2021/12/20 02:54:08;;;;;;;4.50;2.00;;;36.30;67.40;;;;;;5078700;28;20519;-66
2021/12/20 02:56:36;;;;;;;6.43;2.47;;;36.10;69.40;;;;;;5078074;28;20028;-65
2021/12/20 02:59:04;;;;;;;6.63;2.20;;;35.90;68.00;;;;;;5076853;28;20059;-67
2021/12/20 03:01:32;;;;;;;5.00;2.10;;;35.80;69.30;;;;;;5078954;28;20024;-71
2021/12/20 03:04:00;;;;;;;6.13;1.88;;;36.00;70.90;;;;;;5082182;28;20020;-71
2021/12/20 03:06:43;;;;;;;4.68;2.13;;;36.00;69.70;;;;;;5081140;28;20414;-66
2021/12/20 03:09:14;;;;;;;6.97;2.42;;;36.50;69.90;;;;;;5083133;28;20081;-68
2021/12/20 03:11:41;;;;;;;;;;;36.50;68.40;;;;;;5082256;28;20016;-71
2021/12/20 03:14:18;;;;;;;6.30;2.28;;;36.50;67.90;;;;;;5081434;28;19959;-66
2021/12/20 03:16:45;;;;;;;6.30;1.98;;;36.30;68.30;;;;;;5082670;28;20085;-72
2021/12/20 03:19:12;;;;;;;5.15;1.98;;;36.30;68.90;;;;;;5082177;28;20024;-66
2021/12/20 03:21:39;;;;;;;6.03;2.03;;;36.50;69.30;;;;;;5081513;28;20058;-71
2021/12/20 03:24:06;;;;;;;6.35;2.35;;;37.00;67.50;;;;;;5081832;28;20090;-66
2021/12/20 03:26:34;;;;;;;8.63;2.22;;;37.60;66.30;;;;;;5080968;28;20376;-71
2021/12/20 03:29:01;;;;;;;5.20;1.67;;;37.80;68.60;;;;;;5082132;28;20020;-72
2021/12/20 03:31:28;;;;;;;6.47;2.88;;;37.90;67.80;;;;;;5082927;28;20028;-71
2021/12/20 03:33:55;;;;;;;6.63;2.30;;;37.10;67.10;;;;;;5081727;28;20024;-66
2021/12/20 03:36:22;;;;;;;5.05;2.92;;;36.30;67.60;;;;;;5082682;28;20066;-69
2021/12/20 03:38:49;;;;;;;4.53;2.15;;;36.20;69.80;;;;;;5081721;28;20035;-67
2021/12/20 03:41:17;;;;;;;4.55;2.13;;;36.60;68.70;;;;;;5081020;28;20484;-74
2021/12/20 03:43:44;;;;;;;5.90;2.38;;;37.00;68.70;;;;;;5080911;28;20119;-66
2021/12/20 03:46:11;;;;;;;5.30;1.95;;;37.10;67.00;;;;;;5081485;28;20044;-68
2021/12/20 03:48:38;;;;;;;5.22;1.88;;;37.60;67.60;;;;;;5081606;28;20043;-68
2021/12/20 03:51:06;;;;;;;6.10;2.00;;;38.10;66.00;;;;;;5082630;28;20039;-69
2021/12/20 03:53:34;;;;;;;5.20;1.90;;;38.50;65.90;;;;;;5081305;28;20032;-65
2021/12/20 03:56:04;;;;;;;5.22;2.22;;;38.70;64.50;;;;;;5082249;28;20035;-66
2021/12/20 03:58:32;;;;;;;5.40;2.25;;;38.60;65.00;;;;;;5081737;28;20020;-66
2021/12/20 04:01:02;;;;;;;5.60;2.00;;;38.60;65.60;;;;;;5081583;28;20192;-65
2021/12/20 04:03:33;;;;;;;6.55;1.92;;;38.40;65.10;;;;;;5081405;28;20032;-67
2021/12/20 04:06:00;;;;;;;6.47;1.83;;;38.40;61.90;;;;;;5080689;28;20016;-65
2021/12/20 04:08:27;;;;;;;6.57;1.98;;;38.80;61.30;;;;;;5080910;28;20385;-67
2021/12/20 04:10:54;;;;;;;4.93;2.00;;;38.80;62.50;;;;;;5081918;28;20021;-69
2021/12/20 04:13:21;;;;;;;4.15;1.40;;;38.80;62.40;;;;;;5080297;28;20024;-77
2021/12/20 04:15:48;;;;;;;2.83;1.80;;;39.00;62.70;;;;;;5081071;28;20020;-66
2021/12/20 04:18:15;;;;;;;6.53;1.92;;;38.90;62.20;;;;;;5080545;28;20065;-65
2021/12/20 04:20:42;;;;;;;4.63;1.65;;;38.40;62.50;;;;;;5080766;28;20019;-71
2021/12/20 04:23:09;;;;;;;6.18;1.75;;;38.40;61.50;;;;;;5079971;28;20028;-73
2021/12/20 04:25:38;;;;;;;9.10;1.90;;;38.80;62.40;;;;;;5086217;28;20391;-65
2021/12/20 04:28:05;;;;;;;5.82;2.05;;;39.00;60.10;;;;;;5090836;28;20107;-75
2021/12/20 04:30:32;;;;;;;4.43;1.60;;;38.70;60.50;;;;;;5092676;28;20103;-74
2021/12/20 04:33:01;;;;;;;3.45;1.38;;;38.60;60.30;;;;;;5090738;28;20085;-67
2021/12/20 04:35:28;;;;;;;2.80;1.55;;;38.30;60.90;;;;;;5090393;28;20103;-75
2021/12/20 04:37:58;;;;;;;4.38;1.40;;;38.30;64.20;;;;;;5087874;28;20035;-67
2021/12/20 04:40:26;;;;;;;6.10;1.92;;;38.40;61.00;;;;;;5091616;28;20030;-70
2021/12/20 04:42:55;;;;;;;5.65;2.13;;;38.10;60.10;;;;;;5092116;28;20035;-70
2021/12/20 04:45:24;;;;;;;4.07;1.92;;;38.00;59.80;;;;;;5089824;28;20044;-65
2021/12/20 04:47:51;;;;;;;3.38;1.48;;;38.10;62.60;;;;;;5093084;28;20020;-66
2021/12/20 04:50:19;;;;;;;2.65;1.52;;;38.70;62.20;;;;;;5091493;28;20020;-65
2021/12/20 04:52:46;;;;;;;3.47;1.40;;;39.20;61.50;;;;;;5091681;28;20043;-67
2021/12/20 04:55:13;;;;;;;5.40;1.77;;;39.20;57.00;;;;;;5085273;28;20046;-66
2021/12/20 04:57:42;;;;;;;5.30;1.65;;;38.60;59.30;;;;;;5095178;28;20024;-67
2021/12/20 05:00:14;;;;;;;5.05;1.70;;;38.60;57.70;;;;;;5089964;28;20064;-76
2021/12/20 05:02:41;;;;;;;7.53;4.80;;;38.20;57.40;;;;;;5091402;28;20498;-69
2021/12/20 05:05:09;;;;;;;5.55;2.92;;;38.20;61.60;;;;;;5091623;28;20024;-76
2021/12/20 05:07:38;;;;;;;3.17;1.45;;;38.60;61.90;;;;;;5090582;28;20081;-74
2021/12/20 05:10:11;;;;;;;3.25;1.48;;;38.70;59.30;;;;;;5090852;28;20099;-69
2021/12/20 05:12:39;;;;;;;3.22;1.65;;;38.80;58.10;;;;;;5090922;28;20039;-72
2021/12/20 05:15:07;;;;;;;5.38;1.65;;;38.80;60.00;;;;;;5091636;28;20012;-65
2021/12/20 05:17:36;;;;;;;5.57;1.50;;;39.20;59.20;;;;;;5088899;28;20072;-65
2021/12/20 05:20:04;;;;;;;3.08;1.27;;;39.70;59.30;;;;;;5089943;28;20031;-67
2021/12/20 05:22:32;;;;;;;3.83;1.67;;;39.50;58.30;;;;;;5091662;28;20040;-65
2021/12/20 05:24:59;;;;;;;5.72;1.70;;;39.20;56.70;;;;;;5089577;28;20160;-66
2021/12/20 05:27:26;;;;;;;4.55;1.40;;;39.20;57.30;;;;;;5091783;28;20052;-73
2021/12/20 05:29:53;;;;;;;3.60;1.45;;;39.00;54.90;;;;;;5091222;28;20020;-73
2021/12/20 05:32:21;;;;;;;5.15;1.70;;;38.90;56.20;;;;;;5091684;28;20031;-73
2021/12/20 05:34:48;;;;;;;3.58;1.65;;;38.70;56.10;;;;;;5089046;28;20078;-74
2021/12/20 05:37:16;;;;;;;2.58;1.30;;;38.90;55.70;;;;;;5090029;28;20008;-66
2021/12/20 05:39:44;;;;;;;5.20;1.65;;;38.90;56.90;;;;;;5089944;28;20026;-74
2021/12/20 05:42:11;;;;;;;3.38;1.70;;;38.90;56.20;;;;;;5087933;28;20027;-71
2021/12/20 05:44:40;;;;;;;5.20;2.00;;;39.00;55.70;;;;;;5106726;22;20051;-67
2021/12/20 05:47:07;;;;;;;4.50;1.40;;;38.90;56.50;;;;;;5131063;27;20032;-73
2021/12/20 05:49:34;;;;;;;3.85;1.52;;;38.80;56.00;;;;;;5131140;27;20565;-67
2021/12/20 05:52:06;;;;;;;3.83;1.55;;;39.00;55.90;;;;;;5131124;27;20019;-65
2021/12/20 05:54:33;;;;;;;3.78;1.67;;;39.50;53.80;;;;;;5130590;27;20106;-65
2021/12/20 05:57:00;;;;;;;3.15;1.52;;;39.30;53.90;;;;;;5130758;27;20383;-66
2021/12/20 05:59:27;;;;;;;4.57;1.52;;;39.60;55.00;;;;;;5115727;27;20530;-66
2021/12/20 06:01:54;;;;;;;6.03;1.70;;;39.60;54.10;;;;;;5118065;27;20019;-71
2021/12/20 06:04:21;;;;;;;5.55;2.45;;;39.80;54.00;;;;;;5118419;27;20023;-72
2021/12/20 06:06:48;;;;;;;8.90;2.88;;;40.00;57.80;;;;;;5119007;27;20011;-69
2021/12/20 06:09:16;;;;;;;5.90;2.30;;;40.00;58.50;;;;;;5105289;27;21449;-63
2021/12/20 06:11:43;;;;;;;10.65;3.65;;;39.20;59.60;;;;;;4764857;27;10001129;-64
2021/12/20 06:14:10;;;;;;;8.65;3.92;;;39.90;61.10;;;;;;5115793;27;20041;-72
2021/12/20 06:16:37;;;;;;;7.97;4.07;;;40.20;60.70;;;;;;5115469;27;20038;-72
2021/12/20 06:19:05;;;;;;;15.82;12.65;;;40.50;58.70;;;;;;5116414;27;20575;-71
2021/12/20 06:21:32;;;;;;;7.25;3.25;;;41.10;59.10;;;;;;5114708;27;20037;-63
2021/12/20 06:23:59;;;;;;;8.25;2.25;;;41.20;59.20;;;;;;5114399;27;20019;-65
2021/12/20 06:26:26;;;;;;;10.02;3.70;;;41.20;57.20;;;;;;5115297;27;20023;-66
2021/12/20 06:28:53;;;;;;;11.00;6.25;;;40.90;58.20;;;;;;5111502;27;20041;-71
2021/12/20 06:31:20;;;;;;;8.93;2.38;;;40.70;59.20;;;;;;5113558;27;20518;-69
2021/12/20 06:33:47;;;;;;;6.90;2.25;;;40.70;58.00;;;;;;5114159;27;20072;-64
2021/12/20 06:36:15;;;;;;;9.77;3.17;;;40.10;60.40;;;;;;5115864;27;20038;-65
2021/12/20 06:38:45;;;;;;;7.45;2.50;;;39.70;60.90;;;;;;5114145;27;20032;-70
2021/12/20 06:41:13;;;;;;;7.25;2.50;;;39.90;61.00;;;;;;5113614;27;20024;-71
2021/12/20 06:43:41;;;;;;;6.40;2.72;;;39.70;61.30;;;;;;5113291;27;20618;-71
2021/12/20 06:46:08;;;;;;;7.93;2.45;;;39.30;61.40;;;;;;5097302;27;20046;-71
2021/12/20 06:48:35;;;;;;;9.20;2.20;;;38.80;61.30;;;;;;5112780;27;20038;-70
2021/12/20 06:51:02;;;;;;;7.10;2.03;;;38.80;61.90;;;;;;5113958;27;20641;-72
2021/12/20 06:53:29;;;;;;;7.50;2.35;;;39.10;61.70;;;;;;5100359;28;20035;-72
2021/12/20 06:55:56;;;;;;;9.73;2.90;;;38.80;62.20;;;;;;5112612;28;20088;-72
2021/12/20 06:58:23;;;;;;;8.25;2.30;;;38.60;63.00;;;;;;5112232;28;20036;-74
2021/12/20 07:00:52;;;;;;;8.07;2.60;;;38.40;64.90;;;;;;5113529;28;20027;-68
2021/12/20 07:03:20;;;;;;;7.25;2.75;;;39.00;62.20;;;;;;5113248;28;20472;-68
2021/12/20 07:05:48;;;;;;;5.97;2.10;;;38.40;62.80;;;;;;5112801;28;20402;-74
2021/12/20 07:08:15;;;;;;;6.25;2.63;;;37.80;64.00;;;;;;5098050;28;20031;-71
2021/12/20 07:10:42;;;;;;;6.65;2.47;;;37.40;66.20;;;;;;5113666;28;21324;-66
2021/12/20 07:13:10;;;;;;;7.85;2.10;;;37.80;65.00;;;;;;5103255;28;20030;-73
2021/12/20 07:15:38;;;;;;;5.45;2.20;;;37.80;65.10;;;;;;5113996;28;20380;-71
2021/12/20 07:18:05;;;;;;;6.90;2.13;;;38.10;64.50;;;;;;5112889;28;20088;-72
2021/12/20 07:20:32;;;;;;;6.05;1.90;;;38.30;63.50;;;;;;5099440;28;20088;-72
2021/12/20 07:22:59;;;;;;;8.60;2.63;;;38.40;64.20;;;;;;5112585;27;20031;-70
2021/12/20 07:25:26;;;;;;;6.85;2.35;;;38.20;63.70;;;;;;5112606;28;20035;-69
2021/12/20 07:27:54;;;;;;;7.40;1.88;;;38.50;63.30;;;;;;5112899;27;20047;-72
2021/12/20 07:30:21;;;;;;;6.55;2.22;;;38.70;62.70;;;;;;5110952;28;20168;-67
2021/12/20 07:32:48;;;;;;;8.05;2.60;;;38.70;62.30;;;;;;5112121;28;20452;-71
2021/12/20 07:35:16;;;;;;;5.97;2.20;;;38.70;62.20;;;;;;5098354;28;20112;-71
2021/12/20 07:37:43;;;;;;;7.28;2.42;;;38.70;62.10;;;;;;5112205;28;20030;-69
2021/12/20 07:40:11;;;;;;;6.03;2.33;;;38.70;61.90;;;;;;5112478;28;20028;-72
2021/12/20 07:42:38;;;;;;;7.13;1.90;;;38.90;60.50;;;;;;5111724;28;20039;-66
2021/12/20 07:45:08;;;;;;;6.47;2.15;;;38.50;61.30;;;;;;5112214;27;20035;-73
2021/12/20 07:47:35;;;;;;;5.85;4.55;;;38.30;61.80;;;;;;5112501;28;20427;-72
2021/12/20 07:50:05;;;;;;;7.45;2.67;;;38.30;62.40;;;;;;5116163;27;20043;-67
2021/12/20 07:52:33;;;;;;;6.20;2.75;;;38.50;62.20;;;;;;5116244;27;20035;-67
2021/12/20 07:55:01;;;;;;;4.78;1.92;;;38.60;61.30;;;;;;5115479;27;20027;-70
2021/12/20 07:57:28;;;;;;;6.05;2.25;;;38.50;61.30;;;;;;5115440;27;20058;-70
2021/12/20 07:59:55;;;;;;;5.25;1.98;;;38.60;61.10;;;;;;5116512;27;20035;-67
2021/12/20 08:02:22;;;;;;;5.90;4.20;;;38.70;61.00;;;;;;5113952;27;20122;-70
2021/12/20 08:04:50;;;;;;;7.57;3.17;;;38.80;60.90;;;;;;5116022;27;20027;-70
2021/12/20 08:07:21;;;;;;;4.80;2.13;;;39.00;60.70;;;;;;5115317;27;20125;-68
2021/12/20 08:09:49;;;;;;;7.13;2.22;;;38.60;60.40;;;;;;5116236;27;20023;-67
2021/12/20 08:12:17;;;;;;;6.95;2.30;;;38.40;61.10;;;;;;5094322;27;20585;-72
2021/12/20 08:14:44;;;;;;;4.15;1.50;;;38.00;62.30;;;;;;5113373;27;20332;-68
2021/12/20 08:17:12;;;;;;;7.45;1.90;;;37.60;62.40;;;;;;5114336;27;20508;-70
2021/12/20 08:19:39;;;;;;;6.95;1.55;;;37.50;63.20;;;;;;5116294;27;20149;-71
2021/12/20 08:22:06;;;;;;;3.30;1.50;;;37.50;63.00;;;;;;5102379;27;20401;-71
2021/12/20 08:24:33;;;;;;;5.85;2.08;;;37.30;63.00;;;;;;5114877;27;20031;-71
2021/12/20 08:27:00;;;;;;;6.53;1.90;;;36.70;65.10;;;;;;5114774;27;20035;-71
2021/12/20 08:29:29;;;;;;;6.22;1.80;;;35.70;67.10;;;;;;5112211;27;20028;-72
2021/12/20 08:32:01;;;;;;;7.43;1.80;;;34.90;69.10;;;;;;5129262;27;20076;-71
2021/12/20 08:34:30;;;;;;;6.38;2.15;;;34.10;71.80;;;;;;5124754;27;20027;-68
2021/12/20 08:37:00;;;;;;;7.43;1.80;;;33.40;75.00;;;;;;5126491;27;20118;-66
2021/12/20 08:39:31;;;;;;;4.43;1.83;;;32.70;77.80;;;;;;5127064;27;20106;-69
2021/12/20 08:41:59;;;;;;;8.40;2.45;;;32.30;80.80;;;;;;5107836;27;20038;-69
2021/12/20 08:44:27;;;;;;;5.03;2.10;;;31.90;82.80;;;;;;5125832;27;20129;-67
2021/12/20 08:46:58;;;;;;;6.53;2.08;;;31.70;85.20;;;;;;5125805;27;20102;-71
2021/12/20 08:49:25;;;;;;;7.00;2.28;;;31.50;88.20;;;;;;5125794;27;20064;-66
2021/12/20 08:51:54;;;;;;;8.80;2.40;;;31.10;90.60;;;;;;5126976;27;20062;-72
2021/12/20 08:54:24;;;;;;;6.32;2.30;;;30.80;92.20;;;;;;5121061;27;20402;-69
2021/12/20 08:56:52;;;;;;;5.75;2.28;;;30.40;93.80;;;;;;5104947;27;20526;-67
2021/12/20 08:59:19;;;;;;;9.13;2.47;;;30.20;95.50;;;;;;5123711;27;20027;-68
2021/12/20 09:01:46;;;;;;;10.52;2.72;;;29.90;96.90;;;;;;5124035;27;20027;-68
2021/12/20 09:04:13;;;;;;;9.05;3.25;;;29.70;98.30;;;;;;5123899;27;20086;-72
2021/12/20 09:06:42;;;;;;;8.05;5.53;;;29.50;99.30;;;;;;5125386;27;20114;-73
2021/12/20 09:09:11;;;;;;;11.60;4.43;;;29.20;99.90;;;;;;5125778;27;20023;-71
2021/12/20 09:11:39;;;;;;;14.73;6.07;;;29.00;99.90;;;;;;5126123;27;20019;-67
2021/12/20 09:14:06;;;;;;;6.75;2.78;;;28.80;99.90;;;;;;5125484;27;20027;-72
2021/12/20 09:16:33;;;;;;;7.05;2.45;;;28.70;99.90;;;;;;5124123;27;20522;-68
2021/12/20 09:19:00;;;;;;;8.82;2.78;;;28.40;99.90;;;;;;5126403;27;20508;-68
2021/12/20 09:21:27;;;;;;;6.63;2.75;;;28.20;99.90;;;;;;5125606;27;20027;-68
2021/12/20 09:23:56;;;;;;;9.80;3.08;;;28.10;99.90;;;;;;5127535;27;20035;-68
2021/12/20 09:26:23;;;;;;;9.13;2.83;;;27.90;99.90;;;;;;5125405;27;20046;-69
2021/12/20 09:28:50;;;;;;;9.95;3.17;;;27.80;99.90;;;;;;5123530;27;20059;-73
2021/12/20 09:31:17;;;;;;;9.20;2.90;;;27.60;99.90;;;;;;5107563;27;20352;-72
2021/12/20 09:33:44;;;;;;;9.05;2.85;;;27.50;99.90;;;;;;5107087;27;20030;-68
2021/12/20 09:36:11;;;;;;;10.23;3.97;;;27.40;99.90;;;;;;5125597;27;20023;-69
2021/12/20 09:38:38;;;;;;;11.23;5.13;;;27.40;99.90;;;;;;5126385;27;20015;-67
2021/12/20 09:43:37;;;;;;;9.75;3.03;;;27.10;99.90;;;;;;5120394;27;20023;-72
2021/12/20 09:46:05;;;;;;;9.80;3.30;;;27.10;99.90;;;;;;5122123;27;20065;-67
2021/12/20 09:48:35;;;;;;;7.80;2.85;;;27.10;99.90;;;;;;5122537;27;20366;-67
2021/12/20 09:51:04;;;;;;;10.02;3.55;;;27.00;99.90;;;;;;5121911;27;20015;-67
2021/12/20 09:53:31;;;;;;;9.45;3.78;;;26.80;99.90;;;;;;5119521;27;20015;-71
2021/12/20 09:56:00;;;;;;;12.20;3.42;;;26.80;99.90;;;;;;5121859;27;20502;-69
2021/12/20 09:58:33;;;;;;;10.18;3.25;;;26.90;99.90;;;;;;5121677;27;20088;-69
2021/12/20 10:01:01;;;;;;;8.70;3.58;;;26.80;99.90;;;;;;5116760;27;20033;-72
2021/12/20 10:03:29;;;;;;;13.20;4.22;;;26.80;99.90;;;;;;5121393;27;20126;-72
2021/12/20 10:05:57;;;;;;;8.45;3.85;;;26.90;99.90;;;;;;5119661;27;20049;-72
2021/12/20 10:08:34;;;;;;;10.23;3.42;;;26.60;99.90;;;;;;5103037;27;20475;-69
2021/12/20 10:11:25;;;;;;;18.75;12.13;;;26.40;99.90;;;;;;5120200;27;20496;-70
2021/12/20 10:14:13;;;;;;;12.98;3.70;;;26.20;99.90;;;;;;5121487;27;20034;-68
2021/12/20 10:16:41;;;;;;;9.40;3.55;;;26.00;99.90;;;;;;5120677;27;20031;-70
2021/12/20 10:19:31;;;;;;;9.25;4.00;;;26.10;99.90;;;;;;5121735;27;20023;-68
2021/12/20 10:22:01;;;;;;;5.93;3.13;;;26.30;99.90;;;;;;5120651;27;20030;-68
2021/12/20 10:24:32;;;;;;;8.85;3.05;;;26.30;99.90;;;;;;5121191;27;20083;-69
2021/12/20 10:27:00;;;;;;;10.43;3.83;;;26.00;99.90;;;;;;5119667;27;20272;-69
2021/12/20 10:29:27;;;;;;;11.20;3.95;;;25.70;99.90;;;;;;5118835;27;20063;-71
2021/12/20 10:31:55;;;;;;;10.77;3.95;;;25.50;99.90;;;;;;5121099;27;20079;-71
2021/12/20 10:34:40;;;;;;;14.13;3.80;;;25.40;99.90;;;;;;5102910;27;20431;-68
2021/12/20 10:37:07;;;;;;;10.65;3.53;;;25.50;99.90;;;;;;5119104;27;20042;-72
2021/12/20 10:39:43;;;;;;;11.20;3.63;;;25.50;99.90;;;;;;5122136;27;20023;-70
2021/12/20 10:42:16;;;;;;;11.35;3.33;;;25.40;99.90;;;;;;5120905;27;20027;-69
2021/12/20 10:44:43;;;;;;;10.23;3.22;;;25.20;99.90;;;;;;5121059;27;20042;-70
2021/12/20 10:47:25;;;;;;;11.85;3.60;;;25.00;99.90;;;;;;5120551;27;20509;-70
2021/12/20 10:49:53;;;;;;;9.02;3.22;;;24.90;99.90;;;;;;5120414;27;20030;-68
2021/12/20 10:52:31;;;;;;;7.75;3.60;;;24.80;99.90;;;;;;5119989;27;20030;-69
2021/12/20 10:54:58;;;;;;;10.43;3.13;;;24.80;99.90;;;;;;5101787;28;20054;-66
2021/12/20 10:57:28;;;;;;;7.43;3.13;;;24.70;99.90;;;;;;5120695;28;20063;-69
2021/12/20 11:00:15;;;;;;;11.27;3.63;;;24.70;99.90;;;;;;5121832;27;20106;-68
2021/12/20 11:06:10;;;;;;;8.95;3.50;;;24.70;99.90;;;;;;5121587;28;20035;-70
2021/12/20 11:11:15;;;;;;;10.63;3.63;;;24.60;99.90;;;;;;4415522;28;10000753;-71
2021/12/20 11:13:42;;;;;;;10.50;3.38;;;24.60;99.90;;;;;;5122138;28;20068;-68
2021/12/20 11:16:32;;;;;;;10.77;3.45;;;24.60;99.90;;;;;;5122579;28;20080;-70
2021/12/20 11:19:13;;;;;;;10.40;3.20;;;24.60;99.90;;;;;;5101601;28;20047;-73
2021/12/20 11:21:52;;;;;;;9.23;3.83;;;24.50;99.90;;;;;;5119313;28;20089;-72
2021/12/20 11:24:28;;;;;;;8.43;3.47;;;24.50;99.90;;;;;;5120140;27;20063;-68
2021/12/20 11:26:57;;;;;;;11.15;3.75;;;24.50;99.90;;;;;;5124415;27;20446;-71
2021/12/20 11:29:24;;;;;;;13.68;4.25;;;24.50;99.90;;;;;;5122707;27;20110;-71
2021/12/20 11:31:52;;;;;;;11.55;4.00;;;24.40;99.90;;;;;;5123722;27;20102;-70
2021/12/20 11:34:21;;;;;;;11.02;4.00;;;24.40;99.90;;;;;;5108614;27;20027;-71
2021/12/20 11:36:48;;;;;;;9.68;3.78;;;24.40;99.90;;;;;;5106185;27;20070;-69
2021/12/20 11:39:15;;;;;;;9.82;3.95;;;24.30;99.90;;;;;;5121953;27;21107;-73
2021/12/20 11:41:42;;;;;;;13.70;3.88;;;24.10;99.90;;;;;;5106765;27;20056;-72
2021/12/20 11:44:17;;;;;;;11.50;4.18;;;24.10;99.90;;;;;;5121924;27;20053;-69
2021/12/20 11:46:47;;;;;;;10.30;3.70;;;24.00;99.90;;;;;;5121851;27;20058;-69
2021/12/20 11:49:21;;;;;;;9.13;3.83;;;24.00;99.90;;;;;;5105608;27;20283;-73
2021/12/20 11:51:59;;;;;;;12.77;4.35;;;23.90;99.90;;;;;;5126852;27;20412;-73
2021/12/20 11:54:36;;;;;;;9.38;3.78;;;23.90;99.90;;;;;;5104223;27;20550;-72
2021/12/20 11:57:04;;;;;;;9.93;4.00;;;23.80;99.90;;;;;;5108212;27;20031;-70
2021/12/20 11:59:54;;;;;;;11.95;4.72;;;23.80;99.90;;;;;;5105729;27;20174;-69
2021/12/20 12:02:31;;;;;;;13.77;3.88;;;23.70;99.90;;;;;;5105631;27;20448;-74
2021/12/20 12:05:11;;;;;;;7.32;3.65;;;23.70;99.90;;;;;;5123283;27;20031;-71
2021/12/20 12:07:40;;;;;;;11.05;4.03;;;23.70;99.90;;;;;;5123065;27;20424;-71
2021/12/20 12:10:14;;;;;;;10.45;4.30;;;23.60;99.90;;;;;;5123415;27;20057;-73
2021/12/20 12:12:44;;;;;;;12.52;4.40;;;23.60;99.90;;;;;;5104183;27;20031;-74
2021/12/20 12:15:20;;;;;;;12.32;4.38;;;23.60;99.90;;;;;;5126385;27;20559;-72
2021/12/20 12:17:54;;;;;;;10.35;4.45;;;23.50;99.90;;;;;;5126073;27;20169;-74
2021/12/20 12:20:58;;;;;;;12.80;4.00;;;23.50;99.90;;;;;;5124644;27;20054;-69
2021/12/20 12:23:27;;;;;;;14.35;4.35;;;23.40;99.90;;;;;;5125019;27;20052;-75
2021/12/20 12:26:01;;;;;;;15.07;4.75;;;23.30;99.90;;;;;;5125953;27;20062;-73
2021/12/20 12:28:55;;;;;;;12.95;4.47;;;23.40;99.90;;;;;;5124886;27;20027;-72
2021/12/20 12:31:24;;;;;;;11.55;3.83;;;23.40;99.90;;;;;;5125560;27;20022;-71
2021/12/20 12:34:10;;;;;;;13.23;5.13;;;23.40;99.90;;;;;;5125404;27;20170;-71
2021/12/20 12:36:42;;;;;;;8.77;3.97;;;23.30;99.90;;;;;;5126308;27;20457;-73
2021/12/20 12:39:28;;;;;;;11.48;5.25;;;23.20;99.90;;;;;;5107899;27;20031;-74
2021/12/20 12:42:01;;;;;;;13.52;7.50;;;23.10;99.90;;;;;;5126968;27;20019;-75
2021/12/20 12:44:33;;;;;;;11.93;5.78;;;23.20;99.90;;;;;;5127099;27;20046;-74
2021/12/20 12:47:01;;;;;;;;;;;23.30;99.90;;;;;;5108085;27;20392;-73
2021/12/20 12:49:30;;;;;;;14.10;6.10;;;23.30;99.90;;;;;;5125797;27;19919;-71
2021/12/20 12:52:08;;;;;;;10.68;5.03;;;23.20;99.90;;;;;;5107235;27;20034;-73
2021/12/20 12:54:39;;;;;;;15.18;6.55;;;23.10;99.90;;;;;;5125485;27;20454;-73
2021/12/20 12:57:11;;;;;;;17.85;6.82;;;23.10;99.90;;;;;;5125262;27;20023;-69
2021/12/20 12:59:47;;;;;;;9.80;5.90;;;23.10;99.90;;;;;;5105928;27;20027;-74
2021/12/20 13:02:19;;;;;;;17.17;6.07;;;23.10;99.90;;;;;;5124455;27;20031;-73
2021/12/20 13:04:49;;;;;;;18.00;6.35;;;23.10;99.90;;;;;;5124091;27;20114;-71
2021/12/20 13:07:26;;;;;;;14.38;6.57;;;23.00;99.90;;;;;;5125107;27;20035;-74
2021/12/20 13:09:57;;;;;;;14.70;6.50;;;23.00;99.90;;;;;;5124404;27;20058;-72
2021/12/20 13:15:05;;;;;;;10.65;5.20;;;23.00;99.90;;;;;;5125800;27;20031;-71
2021/12/20 13:17:35;;;;;;;14.43;6.25;;;23.00;99.90;;;;;;5106845;27;20126;-70
2021/12/20 13:23:10;;;;;;;11.65;5.72;;;23.00;99.90;;;;;;5125851;27;20412;-69
2021/12/20 13:25:40;;;;;;;14.73;7.00;;;22.90;99.90;;;;;;5123260;27;20028;-69